Record high temperature 35.7°C Record low temperature -7.3°C Record high gust 48.1 km/h Record high average 30.2 km/h Record daily rain 20.2 mm Record low windchill -11.9°C Record high barometer 1038.3 hPa Record low barometer 980.8 hPa
Daily high pressure 1028.4 hPa Daily low pressure 1025.7 hPa Daily low windchill -2.2°C Daily high heat index 2.9°C Daily high gust speed 13.3 kmh WSW Daily high average speed 8.5 kmh W
Wetterdaten
LETZTE AKTUALISIERUNG UM: 11:45 DATUM: 18 Januar 2021, time of next update: 12:00
Aktuelles Wettermostly cloudy Aktuelle Temperatur 2.8°C (37.0°F), Apparent temp 0.9°C, Apparent temp solar 3.0°C
Höchsttemperatur (seit Mitternacht)2.9°C um: 11:28 Tiefsttemperatur (seit Mitternacht)0.6°C um: 00:00
Windgeschwindigkeit (10 Minuten )3.0 kmh (1.6 kts) Windrichtung (Dir) (10 Minuten )WNW (288°)
Windchill Temperatur 2.8°C Windspitzen (letzte Std)9.9 kmh (5.4 kts) um: 11:09
Windspitzen (seit Mitternacht)13.3 kmh (7.2 kts) um: 07:51 Höchstes Windmittel / Minute (seit Mitternacht)8.5 kmh (4.6 kts) um: 07:52
Regenmenge (letzte Std)0.6 mm Regenmenge (seit Mitternacht)1.2 mm (0.05 in.) at 11:40
Regenmenge diesen Monat 16.6 mm (0.65 in.) Regenmenge seit Jahresbeginn 16.6 mm (0.65 in.)
Höchste Regenmenge pro Minute (letzte Std)0.2 mm/min Höchste Regenmenge pro Stunde (letzte 6 Std)0.6 mm/stunde
Regenmenge Gestern 1.0 mm Taupunkt 0.8°C (Wet Bulb :2.0°C )
Luftfeuchtigkeit 87 %, Humidex 0.8°C Aktueller Luftdruck (auf Meereshöhe bezogen)1027.8 hPa
Luftdrucktendenz -0.5 hPa (letzte Std) Trend (letzte 1 Std)gleichbleibend
Luftdrucktendenz (letzte 12 Std)+2.1 hPa Luftdrucktendenz (letzte 6 Std)+1.3 hPa
Maximum Soil temperature (seit Mitternacht) 1.1°C Minimum Soil temperature(seit Mitternacht)1.1°C
Current Soil temperature 1°C
Current Solar 132 W/m²
Maximum solar (seit Mitternacht) 160 W/m² Minimum solar(seit Mitternacht)0 W/m²
Current 00:00 hours of sunshine today, current sky: bewölkt
Sunshine hours for the year: 08:46 hrs Sunshine hours for the month: 08:46 hrs
Current evapotranspiration rate 0.2 mm per day. Yesterday's reading 0.1

Diese Seite wurde mit aktuellen Daten einer DAVIS VP Wetterstation erstellt. Drücken Sie bitte auf "Aktualisieren" oder "neu laden" um die neuesten Daten zu erhalten.


Latest Web Cam Image


Weather report/warning/Metars

Stuttgart-Echterdingen, Germany (EDDS) 48-41N 009-13E 391M
Jan 18, 2021 - 05:20 AM EST / 2021.01.18 1020 UTC
Wind: from the SW (230 degrees) at 6 MPH (5 KT) (direction variable):0
Visibility: greater than 7 mile(s):0
Sky conditions: mostly cloudy
Temperature: 35 F (2 C)
Windchill: 30 F (-1 C):1
Dew Point: 32 F (0 C)
Relative Humidity: 86%
Pressure (altimeter): 30.30 in. Hg (1026 hPa)
ob: EDDS 181020Z 23005KT 170V260 9999 FEW016 BKN045 02/M00 Q1026 NOSIG
cycle: 10
Augsburg, Germany (EDMA) 48-26N 010-56E 463M
Jan 18, 2021 - 05:20 AM EST / 2021.01.18 1020 UTC
Wind: from the W (260 degrees) at 12 MPH (10 KT):0
Visibility: 4 mile(s):0
Sky conditions: overcast
Weather: light snow
Temperature: 33 F (1 C)
Windchill: 24 F (-4 C):1
Dew Point: 30 F (-1 C)
Relative Humidity: 86%
Pressure (altimeter): 30.27 in. Hg (1025 hPa)
ob: EDMA 181020Z 26010KT 7000 -SN SCT011 BKN023 OVC033 01/M01 Q1025
cycle: 10
Nuernberg, Germany (EDDN) 49-30N 011-03E 318M
Jan 18, 2021 - 05:20 AM EST / 2021.01.18 1020 UTC
Wind: from the WSW (250 degrees) at 10 MPH (9 KT):0
Visibility: greater than 7 mile(s):0
Sky conditions: mostly cloudy
Temperature: 35 F (2 C)
Windchill: 26 F (-3 C):1
Dew Point: 32 F (0 C)
Relative Humidity: 86%
Pressure (altimeter): 30.24 in. Hg (1024 hPa)
ob: EDDN 181020Z 25009KT 9999 FEW010 SCT016 BKN039 02/M00 Q1024 R28/29//95 NOSIG
cycle: 10
Berlin-Tegel, Germany (EDDT) 52-34N 013-19E 37M
Nov 09, 2020 - 01:50 AM EST / 2020.11.09 0650 UTC
Wind: from the E (090 degrees) at 7 MPH (6 KT) (direction variable):0
Visibility: 1 mile(s):0
Sky conditions: overcast
Weather: mist
Temperature: 42 F (6 C)
Dew Point: 41 F (5 C)
Relative Humidity: 93%
Pressure (altimeter): 30.33 in. Hg (1027 hPa)
ob: EDDT 090650Z 09006KT 050V120 3000 BR OVC003 06/05 Q1027
cycle: 7
Friedrichshafen, Germany (EDNY) 47-40N 009-31E 424M
Jan 18, 2021 - 05:20 AM EST / 2021.01.18 1020 UTC
Wind: Variable at 2 MPH (2 KT):0
Visibility: greater than 7 mile(s):0
Sky conditions: overcast
Temperature: 35 F (2 C)
Dew Point: 30 F (-1 C)
Relative Humidity: 80%
Pressure (altimeter): 30.33 in. Hg (1027 hPa)
ob: EDNY 181020Z VRB02KT 9999 FEW015 OVC053 02/M01 Q1027
cycle: 10
Hamburg-Finkenwerder, Germany (EDHI) 53-32N 009-50E 13M
Jan 18, 2021 - 05:20 AM EST / 2021.01.18 1020 UTC
Wind: from the SW (220 degrees) at 9 MPH (8 KT):0
Visibility: 1 mile(s):0
Sky conditions: mostly cloudy
Weather: drizzle; mist
Temperature: 37 F (3 C)
Dew Point: 37 F (3 C)
Relative Humidity: 100%
Pressure (altimeter): 30.03 in. Hg (1017 hPa)
ob: EDHI 181020Z 22008KT 3100 DZ BR SCT004 BKN006 03/03 Q1017
cycle: 10
Amsterdam Airport Schiphol, Netherlands (EHAM) 52-18N 004-46E -2M
Jan 18, 2021 - 05:25 AM EST / 2021.01.18 1025 UTC
Wind: from the WSW (250 degrees) at 17 MPH (15 KT):0
Visibility: greater than 7 mile(s):0
Sky conditions: partly cloudy
Temperature: 44 F (7 C)
Dew Point: 39 F (4 C)
Relative Humidity: 81%
Pressure (altimeter): 30.12 in. Hg (1020 hPa)
ob: EHAM 181025Z 25015KT 9999 FEW012 SCT016 07/04 Q1020 NOSIG
cycle: 10
Stockholm/Skavsta, Sweden (ESKN) 58-47N 016-55E
Jan 18, 2021 - 05:20 AM EST / 2021.01.18 1020 UTC
Wind: from the SW (230 degrees) at 3 MPH (3 KT):0
Visibility: greater than 7 mile(s):0
Sky conditions: mostly cloudy
Temperature: 28 F (-2 C)
Dew Point: 24 F (-4 C)
Relative Humidity: 86%
Pressure (altimeter): 29.94 in. Hg (1014 hPa)
ob: ESKN 181020Z 23003KT 9999 BKN034 M02/M04 Q1014 R26/910195
cycle: 10
Ramstein, Germany (ETAR) 49-26N 007-36E 237M
Jan 18, 2021 - 04:56 AM EST / 2021.01.18 0956 UTC
Wind: from the WSW (250 degrees) at 7 MPH (6 KT):0
Visibility: greater than 7 mile(s):0
Sky conditions: overcast
Temperature: 36.7 F (2.6 C)
Dew Point: 36.7 F (2.6 C)
Relative Humidity: 100%
Pressure (altimeter): 30.29 in. Hg (1025 hPa)
ob: ETAR 180956Z 25006KT 9999 OVC009 03/03 A3029 RMK AO2A CIG 008 RWY08 SLP271 T00260026 FZRANO 
cycle: 10
Laupheim, Germany (ETHL) 48-13N 009-55E 550M
Jan 18, 2021 - 05:20 AM EST / 2021.01.18 1020 UTC
Wind: from the WSW (240 degrees) at 9 MPH (8 KT):0
Visibility: greater than 7 mile(s):0
Sky conditions: mostly cloudy
Temperature: 33 F (1 C)
Windchill: 24 F (-4 C):1
Dew Point: 28 F (-2 C)
Relative Humidity: 80%
Pressure (altimeter): 30.27 in. Hg (1025 hPa)
ob: ETHL 181020Z 24008KT 9999 BKN040 BKN070 01/M02 Q1025 BLU BLU
cycle: 10
Gran Canaria - Canary Islands, Spain (GCLP) 27-56N 015-23W 47M
Jan 18, 2021 - 05:30 AM EST / 2021.01.18 1030 UTC
Wind: from the NNE (030 degrees) at 8 MPH (7 KT) (direction variable):0
Visibility: greater than 7 mile(s):0
Sky conditions: mostly clear
Temperature: 66 F (19 C)
Dew Point: 51 F (11 C)
Relative Humidity: 59%
Pressure (altimeter): 30.33 in. Hg (1027 hPa)
ob: GCLP 181030Z 03007KT 340V060 9999 FEW025 19/11 Q1027 NOSIG
cycle: 10
Hurguada, Egypt (HEGN) 27-09N 033-43E 14M
Jan 18, 2021 - 04:00 AM EST / 2021.01.18 0900 UTC
Wind: from the NW (310 degrees) at 14 MPH (12 KT):0
Visibility: greater than 7 mile(s):0
Temperature: 68 F (20 C)
Dew Point: 33 F (1 C)
Relative Humidity: 28%
Pressure (altimeter): 30.15 in. Hg (1021 hPa)
ob: HEGN 180900Z 31012KT CAVOK 20/01 Q1021 NOSIG
cycle: 9
Chicago / Meigs, IL, United States (KCGX) 41-52N 087-36W
Jun 18, 2008 - 01:45 PM EDT / 2008.06.18 1745 UTC
Wind: from the NW (310 degrees) at 6 MPH (5 KT):0
Visibility: 15 mile(s):0
Sky conditions: overcast
Temperature: 57 F (14 C)
Dew Point: 51 F (11 C)
Relative Humidity: 82%
Pressure (altimeter): 29.89 in. Hg (1012 hPa)
ob: KCGX 181745Z 31005KT 15SM BKN014 OVC030 14/11 A2989
cycle: 18
Paris-Aeroport Charles De Gaulle, France (LFPG) 49-01N 002-32E 109M
Jan 18, 2021 - 05:30 AM EST / 2021.01.18 1030 UTC
Wind: from the SW (230 degrees) at 7 MPH (6 KT):0
Visibility: greater than 7 mile(s):0
Sky conditions: mostly cloudy
Temperature: 41 F (5 C)
Dew Point: 37 F (3 C)
Relative Humidity: 86%
Pressure (altimeter): 30.33 in. Hg (1027 hPa)
ob: LFPG 181030Z 23006KT 9999 FEW020 BKN260 05/03 Q1027 NOSIG
cycle: 10
Hyeres, France (LFTH) 43-06N 006-09E 4M
Jan 18, 2021 - 05:30 AM EST / 2021.01.18 1030 UTC
Wind: from the N (350 degrees) at 12 MPH (10 KT) (direction variable):0
Visibility: greater than 7 mile(s):0
Temperature: 50 F (10 C)
Dew Point: 26 F (-3 C)
Relative Humidity: 39%
Pressure (altimeter): 30.21 in. Hg (1023 hPa)
ob: LFTH 181030Z AUTO 35010KT 330V030 CAVOK 10/M03 Q1023 NOSIG
cycle: 10



Die Wetterdaten werden alle 2 Minuten gespeichert, aber die Datenübertragung findet jede Minute statt. Die beste Ansicht wird in einer Auflösung von 800 x 600 und "True colour" erzielt. Linie zeigt die relative Luftfeuchtigkeit an.

Drücken Sie bitte auf "Aktualisieren" in Ihrem Browser, um die aktuellsten Daten zu erhalten.

Klicken Sie hier, um eine Übersicht der Durchschnitts- u. Extremwerte für den Monat zu erhalten
Created by "Weather Display" software version 10.37S at this start time/date 18:04:05 16.01.2021